Time;durP1;ratioP1;P1;durP2;ratioP2;P2;SDS_P1;SDS_P2;PMS_P1;PMS_P2;Temp;Humidity;BMP_temperature;BMP_pressure;BME280_temperature;BME280_humidity;BME280_pressure;Samples;Min_cycle;Max_cycle;Signal;HPM_P1;HPM_P2
2021/07/12 00:01:07;;;;;;;2.88;1.10;;;16.30;74.40;;;;;;5086596;27;20028;-65
2021/07/12 00:03:33;;;;;;;1.38;1.10;;;16.30;74.60;;;;;;5085886;28;20042;-66
2021/07/12 00:05:59;;;;;;;1.63;1.10;;;16.30;74.50;;;;;;5083659;27;20047;-65
2021/07/12 00:08:24;;;;;;;3.92;1.00;;;16.30;74.60;;;;;;5085336;27;20033;-65
2021/07/12 00:10:50;;;;;;;6.43;1.25;;;16.30;74.60;;;;;;5082861;28;20048;-65
2021/07/12 00:13:16;;;;;;;2.92;1.00;;;16.20;74.50;;;;;;5085082;27;20445;-65
2021/07/12 00:15:42;;;;;;;2.45;1.15;;;16.20;74.70;;;;;;5083927;27;20036;-65
2021/07/12 00:18:07;;;;;;;2.25;1.02;;;16.10;74.90;;;;;;5086644;27;20036;-65
2021/07/12 00:20:33;;;;;;;1.08;1.00;;;16.10;75.10;;;;;;5083355;27;20042;-65
2021/07/12 00:22:59;;;;;;;2.40;1.10;;;16.00;74.90;;;;;;5081303;27;20036;-64
2021/07/12 00:25:26;;;;;;;6.30;1.17;;;16.00;75.40;;;;;;5084826;27;20040;-65
2021/07/12 00:27:52;;;;;;;2.30;1.23;;;16.00;75.50;;;;;;5081506;28;20032;-65
2021/07/12 00:30:21;;;;;;;2.38;1.30;;;15.90;75.40;;;;;;5085214;27;20116;-66
2021/07/12 00:32:48;;;;;;;5.40;1.23;;;15.90;75.60;;;;;;5084150;27;20089;-65
2021/07/12 00:35:14;;;;;;;2.08;1.20;;;15.80;75.40;;;;;;5082523;28;20156;-65
2021/07/12 00:37:40;;;;;;;6.28;1.10;;;15.80;75.60;;;;;;5082479;27;20064;-65
2021/07/12 00:40:09;;;;;;;1.92;1.05;;;15.80;75.70;;;;;;5083414;28;20752;-65
2021/07/12 00:42:35;;;;;;;3.83;1.20;;;15.80;75.80;;;;;;5084123;27;20032;-65
2021/07/12 00:45:00;;;;;;;2.20;1.27;;;15.80;75.80;;;;;;5083957;27;20032;-65
2021/07/12 00:47:26;;;;;;;2.22;1.25;;;15.80;76.10;;;;;;5083418;28;20414;-65
2021/07/12 00:49:52;;;;;;;2.55;1.40;;;15.80;76.10;;;;;;5083152;27;20085;-65
2021/07/12 00:52:18;;;;;;;4.85;1.17;;;15.80;76.00;;;;;;5086876;28;20110;-66
2021/07/12 00:54:44;;;;;;;2.22;1.02;;;15.80;75.90;;;;;;5076420;28;20048;-65
2021/07/12 00:57:09;;;;;;;2.20;1.10;;;15.80;75.80;;;;;;5085992;27;20039;-65
2021/07/12 00:59:35;;;;;;;3.53;1.25;;;15.80;75.80;;;;;;5087237;28;20031;-65
2021/07/12 01:02:04;;;;;;;2.72;1.25;;;15.80;75.80;;;;;;5081556;28;20028;-65
2021/07/12 01:04:31;;;;;;;1.30;1.10;;;15.80;75.80;;;;;;5085849;28;20503;-65
2021/07/12 01:06:57;;;;;;;2.55;1.23;;;15.80;75.70;;;;;;5081649;27;20036;-65
2021/07/12 01:09:22;;;;;;;2.95;1.08;;;15.80;75.60;;;;;;5084074;27;20035;-66
2021/07/12 01:12:00;;;;;;;1.80;1.30;;;15.80;75.70;;;;;;5081364;28;20040;-65
2021/07/12 01:14:32;;;;;;;3.80;1.35;;;15.80;75.90;;;;;;5083357;27;20107;-65
2021/07/12 01:17:21;;;;;;;6.18;1.40;;;15.90;76.10;;;;;;5077320;28;20526;-65
2021/07/12 01:20:35;;;;;;;1.45;1.35;;;15.80;76.10;;;;;;5087392;27;20503;-65
2021/07/12 01:23:25;;;;;;;17.73;1.90;;;15.80;76.50;;;;;;5074186;28;20063;-64
2021/07/12 01:26:19;;;;;;;2.45;1.13;;;15.80;76.50;;;;;;5086649;27;20048;-65
2021/07/12 01:29:02;;;;;;;3.22;1.17;;;15.80;76.30;;;;;;5083613;27;20052;-65
2021/07/12 01:32:00;;;;;;;1.17;1.05;;;15.70;76.50;;;;;;5087142;28;20435;-65
2021/07/12 01:34:41;;;;;;;2.35;1.40;;;15.70;76.60;;;;;;5046266;28;20118;-65
2021/07/12 01:37:15;;;;;;;2.17;1.10;;;15.70;76.10;;;;;;5082750;27;20040;-65
2021/07/12 01:40:09;;;;;;;8.38;1.30;;;15.60;75.80;;;;;;5083003;28;20028;-65
2021/07/12 01:43:07;;;;;;;2.10;1.00;;;15.60;76.00;;;;;;5084847;27;20123;-65
2021/07/12 01:45:45;;;;;;;2.00;1.20;;;15.60;76.00;;;;;;5084227;27;20084;-65
2021/07/12 01:48:19;;;;;;;3.10;1.75;;;15.60;76.00;;;;;;5082427;28;20032;-65
2021/07/12 01:50:51;;;;;;;14.13;3.78;;;15.60;75.70;;;;;;5096615;27;20035;-65
2021/07/12 01:53:40;;;;;;;21.55;4.20;;;15.60;75.80;;;;;;5081868;27;20031;-65
2021/07/12 01:56:15;;;;;;;9.23;3.13;;;15.60;76.60;;;;;;5081002;28;20044;-65
2021/07/12 01:58:42;;;;;;;;;;;15.50;76.60;;;;;;5084832;27;20032;-65
2021/07/12 02:01:10;;;;;;;7.10;2.75;;;15.50;76.50;;;;;;5087168;27;20035;-65
2021/07/12 02:03:36;;;;;;;8.10;2.20;;;15.50;75.80;;;;;;5081083;28;20032;-65
2021/07/12 02:06:07;;;;;;;6.55;1.70;;;15.50;76.20;;;;;;5078826;27;20120;-65
2021/07/12 02:08:36;;;;;;;7.93;1.70;;;15.50;76.50;;;;;;5084561;27;20032;-65
2021/07/12 02:11:04;;;;;;;15.25;1.70;;;15.50;76.60;;;;;;5082644;28;20046;-65
2021/07/12 02:13:31;;;;;;;7.60;1.52;;;15.50;76.50;;;;;;5084876;27;20032;-65
2021/07/12 02:16:00;;;;;;;3.20;1.33;;;15.50;76.50;;;;;;5083073;28;20039;-65
2021/07/12 02:18:27;;;;;;;9.23;1.40;;;15.40;76.60;;;;;;5077035;27;20066;-65
2021/07/12 02:20:55;;;;;;;5.68;1.33;;;15.40;77.80;;;;;;5079890;28;20032;-65
2021/07/12 02:23:22;;;;;;;11.95;1.60;;;15.30;77.30;;;;;;5079945;28;20551;-66
2021/07/12 02:25:49;;;;;;;11.18;1.60;;;15.30;77.40;;;;;;5083462;27;20043;-65
2021/07/12 02:28:16;;;;;;;2.22;1.42;;;15.30;77.70;;;;;;5077930;28;20062;-65
2021/07/12 02:30:43;;;;;;;11.20;1.60;;;15.30;78.10;;;;;;5083275;27;20894;-65
2021/07/12 02:33:10;;;;;;;5.32;1.95;;;15.30;78.30;;;;;;5083046;28;20036;-64
2021/07/12 02:35:38;;;;;;;2.03;1.50;;;15.30;79.30;;;;;;5081641;28;20059;-65
2021/07/12 02:38:05;;;;;;;3.85;1.67;;;15.30;78.50;;;;;;5080020;27;20031;-65
2021/07/12 02:40:30;;;;;;;35.80;2.20;;;15.40;78.50;;;;;;5080256;27;20118;-66
2021/07/12 02:42:58;;;;;;;3.60;1.95;;;15.30;78.60;;;;;;5084609;28;20146;-65
2021/07/12 02:45:26;;;;;;;14.27;2.17;;;15.40;78.60;;;;;;5083540;27;20503;-65
2021/07/12 02:47:52;;;;;;;3.38;2.15;;;15.40;78.60;;;;;;5080510;28;20043;-65
2021/07/12 02:50:20;;;;;;;18.35;2.33;;;15.50;78.60;;;;;;5078439;27;20446;-65
2021/07/12 02:53:03;;;;;;;22.42;2.97;;;15.50;78.60;;;;;;5085799;28;20174;-65
2021/07/12 02:55:29;;;;;;;4.35;3.03;;;15.50;79.40;;;;;;5080702;28;20028;-65
2021/07/12 02:57:55;;;;;;;8.40;3.22;;;15.60;78.70;;;;;;5086333;27;20047;-65
2021/07/12 03:00:21;;;;;;;4.88;3.50;;;15.60;78.90;;;;;;5084628;28;20035;-65
2021/07/12 03:02:46;;;;;;;5.10;3.00;;;15.60;78.90;;;;;;5085701;27;20040;-65
2021/07/12 03:05:12;;;;;;;7.13;3.70;;;15.60;78.90;;;;;;5088659;27;20032;-65
2021/07/12 03:07:56;;;;;;;3.97;3.58;;;15.70;79.10;;;;;;5085906;28;20032;-65
2021/07/12 03:10:27;;;;;;;22.90;3.22;;;15.70;79.80;;;;;;5084064;27;20043;-65
2021/07/12 03:13:15;;;;;;;54.30;3.75;;;15.70;79.20;;;;;;5084543;27;20590;-65
2021/07/12 03:15:47;;;;;;;82.13;4.57;;;15.80;80.20;;;;;;5085944;28;20069;-64
2021/07/12 03:18:33;;;;;;;21.88;3.47;;;15.80;79.40;;;;;;5085974;27;20059;-65
2021/07/12 03:21:03;;;;;;;16.83;2.78;;;15.90;80.10;;;;;;5088640;27;20082;-66
2021/07/12 03:23:38;;;;;;;3.50;2.83;;;15.90;79.10;;;;;;5079989;28;20050;-65
2021/07/12 03:26:06;;;;;;;80.35;4.28;;;15.80;79.40;;;;;;5083510;27;20056;-64
2021/07/12 03:28:34;;;;;;;18.15;2.80;;;15.90;79.30;;;;;;5086395;27;20050;-65
2021/07/12 03:31:01;;;;;;;124.43;4.80;;;15.90;79.30;;;;;;5102460;27;20036;-65
2021/07/12 03:33:29;;;;;;;3.67;1.88;;;15.90;79.20;;;;;;5088064;27;20503;-66
2021/07/12 03:35:55;;;;;;;91.90;4.05;;;15.80;79.10;;;;;;5083206;28;20044;-65
2021/07/12 03:38:23;;;;;;;14.80;2.72;;;15.90;79.10;;;;;;5083337;27;20025;-65
2021/07/12 03:40:50;;;;;;;61.28;2.92;;;15.90;79.30;;;;;;5081595;27;20055;-65
2021/07/12 03:43:17;;;;;;;26.02;2.63;;;15.90;79.10;;;;;;5081546;28;20024;-65
2021/07/12 03:45:51;;;;;;;23.65;2.65;;;15.90;79.00;;;;;;5084873;27;20036;-65
2021/07/12 03:48:16;;;;;;;25.30;2.60;;;15.90;79.10;;;;;;5081597;28;20498;-65
2021/07/12 03:50:42;;;;;;;36.33;2.55;;;15.90;78.90;;;;;;5080316;27;20035;-65
2021/07/12 03:53:08;;;;;;;2.40;2.20;;;15.90;78.90;;;;;;5081371;27;20024;-64
2021/07/12 03:55:34;;;;;;;75.15;3.17;;;15.80;78.90;;;;;;5082818;28;20577;-65
2021/07/12 03:58:00;;;;;;;52.97;3.00;;;15.90;79.30;;;;;;5081879;27;20694;-65
2021/07/12 04:00:28;;;;;;;38.72;3.30;;;15.80;79.30;;;;;;5082039;27;20392;-65
2021/07/12 04:02:54;;;;;;;9.88;2.67;;;15.80;79.30;;;;;;5082043;28;20028;-65
2021/07/12 04:05:24;;;;;;;22.15;2.40;;;15.90;79.30;;;;;;5083160;27;20470;-65
2021/07/12 04:07:52;;;;;;;132.05;4.25;;;15.90;79.20;;;;;;5082664;28;20044;-64
2021/07/12 04:10:19;;;;;;;12.82;2.15;;;15.90;79.10;;;;;;5084439;27;20032;-65
2021/07/12 04:12:46;;;;;;;6.50;2.20;;;15.90;78.90;;;;;;5085026;27;20060;-65
2021/07/12 04:15:14;;;;;;;18.35;2.42;;;15.80;79.10;;;;;;5080521;28;20115;-65
2021/07/12 04:17:40;;;;;;;28.42;2.22;;;15.90;79.50;;;;;;5084400;27;20032;-65
2021/07/12 04:20:07;;;;;;;10.50;2.03;;;15.80;79.40;;;;;;5082058;28;20028;-65
2021/07/12 04:22:33;;;;;;;73.28;3.35;;;15.80;79.50;;;;;;5083097;27;20036;-65
2021/07/12 04:24:58;;;;;;;8.52;2.30;;;15.90;79.60;;;;;;5087197;27;20093;-65
2021/07/12 04:27:24;;;;;;;100.78;4.22;;;15.90;79.60;;;;;;5083810;28;20115;-65
2021/07/12 04:29:50;;;;;;;131.45;4.32;;;15.90;79.60;;;;;;5084163;27;20048;-65
2021/07/12 04:32:16;;;;;;;51.97;2.70;;;15.90;79.40;;;;;;5077763;28;20532;-65
2021/07/12 04:34:41;;;;;;;2.97;2.28;;;15.90;79.30;;;;;;5082689;27;22339;-65
2021/07/12 04:37:07;;;;;;;117.90;4.00;;;15.80;79.40;;;;;;5082134;28;20170;-64
2021/07/12 04:39:33;;;;;;;114.60;4.05;;;15.80;79.60;;;;;;5080427;28;20032;-65
2021/07/12 04:41:59;;;;;;;110.88;4.35;;;15.80;79.50;;;;;;5083275;28;20034;-68
2021/07/12 04:44:25;;;;;;;102.05;3.20;;;15.80;79.80;;;;;;5086722;27;20036;-68
2021/07/12 04:46:51;;;;;;;104.35;4.00;;;15.80;79.80;;;;;;5081194;28;20577;-65
2021/07/12 04:49:17;;;;;;;92.55;4.10;;;15.70;79.90;;;;;;5080563;27;20040;-65
2021/07/12 04:51:43;;;;;;;25.70;2.75;;;15.70;80.00;;;;;;5081561;28;20515;-65
2021/07/12 04:54:09;;;;;;;22.45;2.72;;;15.60;80.10;;;;;;5086542;27;20035;-65
2021/07/12 04:56:35;;;;;;;10.75;2.33;;;15.60;80.50;;;;;;5087401;27;20047;-65
2021/07/12 04:59:07;;;;;;;91.45;3.70;;;15.60;80.90;;;;;;5085757;28;20028;-65
2021/07/12 05:01:34;;;;;;;81.50;3.38;;;15.60;81.20;;;;;;5085901;27;20043;-65
2021/07/12 05:04:04;;;;;;;131.65;4.40;;;15.60;81.20;;;;;;5086097;28;20036;-65
2021/07/12 05:06:30;;;;;;;90.88;4.22;;;15.70;81.30;;;;;;5085828;28;20543;-65
2021/07/12 05:08:56;;;;;;;68.32;3.45;;;15.70;81.00;;;;;;5088922;27;20028;-65
2021/07/12 05:11:24;;;;;;;61.50;3.10;;;15.70;81.20;;;;;;5088280;28;20063;-65
2021/07/12 05:13:49;;;;;;;37.28;2.50;;;15.70;81.50;;;;;;5087925;27;20507;-65
2021/07/12 05:16:15;;;;;;;8.27;2.40;;;15.70;81.50;;;;;;5088645;28;20100;-65
2021/07/12 05:18:41;;;;;;;37.08;2.67;;;15.70;81.60;;;;;;5087192;27;20112;-65
2021/07/12 05:21:07;;;;;;;25.33;2.67;;;15.70;82.60;;;;;;5085078;27;20028;-65
2021/07/12 05:23:33;;;;;;;18.88;2.72;;;15.80;82.00;;;;;;5087091;28;20039;-65
2021/07/12 05:25:58;;;;;;;25.58;3.25;;;15.80;82.20;;;;;;5085897;28;20482;-65
2021/07/12 05:28:24;;;;;;;17.20;2.60;;;15.90;82.20;;;;;;5094362;27;20032;-66
2021/07/12 05:30:51;;;;;;;9.50;2.65;;;16.00;82.20;;;;;;5087141;28;20032;-65
2021/07/12 05:33:16;;;;;;;8.10;2.45;;;16.00;82.00;;;;;;5087250;27;20112;-65
2021/07/12 05:35:42;;;;;;;4.38;2.47;;;16.10;81.90;;;;;;5087623;28;20885;-65
2021/07/12 05:38:09;;;;;;;28.42;2.80;;;16.10;81.80;;;;;;5087709;27;20031;-65
2021/07/12 05:40:35;;;;;;;4.57;2.70;;;16.20;81.70;;;;;;5086706;27;20027;-65
2021/07/12 05:43:01;;;;;;;10.07;3.15;;;16.20;81.70;;;;;;5087297;28;20419;-65
2021/07/12 05:45:27;;;;;;;7.40;2.53;;;16.20;81.90;;;;;;5086657;27;20114;-65
2021/07/12 05:47:52;;;;;;;6.57;2.28;;;16.30;81.70;;;;;;5087661;28;20123;-65
2021/07/12 05:50:18;;;;;;;33.00;2.70;;;16.30;81.70;;;;;;5086236;27;20039;-65
2021/07/12 05:52:44;;;;;;;23.60;2.75;;;16.30;81.70;;;;;;5085856;27;20044;-65
2021/07/12 05:55:10;;;;;;;10.88;2.38;;;16.30;81.40;;;;;;5087453;28;20097;-65
2021/07/12 05:57:36;;;;;;;5.00;2.35;;;16.40;81.50;;;;;;5086405;27;20051;-65
2021/07/12 06:00:05;;;;;;;16.83;2.58;;;16.40;81.70;;;;;;5086977;28;20052;-65
2021/07/12 06:02:31;;;;;;;16.90;2.38;;;16.40;82.00;;;;;;5085825;27;20028;-65
2021/07/12 06:04:56;;;;;;;6.55;2.08;;;16.50;81.60;;;;;;5086243;27;20028;-65
2021/07/12 06:07:22;;;;;;;17.38;2.58;;;16.60;81.80;;;;;;5087792;28;20894;-65
2021/07/12 06:09:47;;;;;;;32.15;2.65;;;16.60;81.90;;;;;;5080252;28;20039;-65
2021/07/12 06:12:13;;;;;;;39.22;2.90;;;16.60;81.50;;;;;;5088270;28;20425;-65
2021/07/12 06:14:39;;;;;;;20.67;2.83;;;16.70;81.20;;;;;;5086007;27;20097;-65
2021/07/12 06:17:04;;;;;;;13.70;2.50;;;16.70;81.10;;;;;;5084427;27;20042;-65
2021/07/12 06:19:30;;;;;;;3.05;2.80;;;16.70;81.30;;;;;;5087163;28;20044;-65
2021/07/12 06:21:56;;;;;;;5.47;2.95;;;16.70;81.50;;;;;;5086308;27;20040;-65
2021/07/12 06:24:22;;;;;;;3.45;2.80;;;16.70;81.90;;;;;;5084516;28;20188;-65
2021/07/12 06:26:48;;;;;;;2.90;2.70;;;16.70;82.80;;;;;;5086326;28;20032;-65
2021/07/12 06:29:13;;;;;;;3.42;3.13;;;16.80;82.20;;;;;;5086287;27;20032;-65
2021/07/12 06:31:39;;;;;;;10.73;3.55;;;16.80;82.10;;;;;;5085778;28;20075;-65
2021/07/12 06:34:05;;;;;;;4.32;3.30;;;16.90;82.90;;;;;;5085445;27;20036;-65
2021/07/12 06:36:30;;;;;;;9.95;4.03;;;17.00;82.00;;;;;;5087133;27;20510;-65
2021/07/12 06:38:56;;;;;;;5.53;4.40;;;17.10;82.20;;;;;;5086190;28;20131;-65
2021/07/12 06:41:22;;;;;;;8.05;4.90;;;17.10;82.00;;;;;;5086302;27;20039;-65
2021/07/12 06:43:48;;;;;;;6.55;4.18;;;17.20;81.90;;;;;;5082818;28;20036;-65
2021/07/12 06:46:14;;;;;;;6.07;3.65;;;17.20;81.90;;;;;;5085048;27;20388;-65
2021/07/12 06:48:40;;;;;;;3.97;3.67;;;17.30;81.60;;;;;;5084962;27;20067;-65
2021/07/12 06:51:06;;;;;;;23.33;4.43;;;17.40;81.70;;;;;;5085084;28;20406;-65
2021/07/12 06:53:31;;;;;;;4.13;3.53;;;17.50;81.30;;;;;;5082888;27;20036;-65
2021/07/12 06:55:57;;;;;;;5.25;3.92;;;17.50;80.70;;;;;;5083082;28;20039;-65
2021/07/12 06:58:23;;;;;;;3.85;3.55;;;17.50;80.80;;;;;;5085759;27;20032;-65
2021/07/12 07:00:48;;;;;;;3.85;3.55;;;17.50;81.00;;;;;;5082907;28;20036;-65
2021/07/12 07:03:14;;;;;;;6.72;3.88;;;17.50;80.90;;;;;;5078416;28;20036;-65
2021/07/12 07:05:39;;;;;;;7.55;4.35;;;17.60;81.00;;;;;;5092154;27;20082;-64
2021/07/12 07:08:05;;;;;;;7.18;3.70;;;17.50;80.90;;;;;;5086136;28;20452;-65
2021/07/12 07:10:31;;;;;;;4.57;4.18;;;17.60;80.90;;;;;;5099891;27;20064;-65
2021/07/12 07:12:57;;;;;;;5.00;3.92;;;17.70;81.10;;;;;;5085583;28;20060;-65
2021/07/12 07:15:22;;;;;;;3.88;3.58;;;17.70;81.10;;;;;;5085684;28;20087;-65
2021/07/12 07:17:48;;;;;;;4.25;3.95;;;17.80;81.00;;;;;;5085733;27;20109;-65
2021/07/12 07:20:14;;;;;;;5.43;4.93;;;17.90;80.90;;;;;;5085107;28;20051;-65
2021/07/12 07:22:40;;;;;;;5.10;4.60;;;17.90;81.00;;;;;;5083942;28;20457;-65
2021/07/12 07:25:06;;;;;;;5.20;4.80;;;18.00;80.90;;;;;;5083886;28;20103;-65
2021/07/12 07:27:32;;;;;;;5.03;4.63;;;18.10;80.70;;;;;;5084737;28;20380;-65
2021/07/12 07:29:58;;;;;;;5.35;4.95;;;18.20;80.50;;;;;;5085397;27;20028;-65
2021/07/12 07:32:24;;;;;;;5.72;5.10;;;18.20;80.50;;;;;;5085363;27;20055;-65
2021/07/12 07:34:49;;;;;;;5.05;4.65;;;18.30;80.50;;;;;;5081813;28;20390;-65
2021/07/12 07:37:15;;;;;;;4.78;4.38;;;18.40;80.50;;;;;;5079850;27;20544;-65
2021/07/12 07:39:41;;;;;;;4.35;3.95;;;18.50;80.60;;;;;;5082019;28;20031;-65
2021/07/12 07:42:07;;;;;;;4.53;3.80;;;18.60;80.80;;;;;;5085262;27;20530;-65
2021/07/12 07:44:33;;;;;;;4.32;4.03;;;18.70;80.70;;;;;;5086982;27;20042;-65
2021/07/12 07:46:59;;;;;;;3.90;3.63;;;18.80;80.80;;;;;;5093418;28;20036;-65
2021/07/12 07:49:25;;;;;;;4.78;4.38;;;18.90;80.30;;;;;;5088931;27;20040;-64
2021/07/12 07:51:51;;;;;;;4.45;4.07;;;19.00;79.70;;;;;;5088229;28;20039;-65
2021/07/12 07:54:17;;;;;;;4.57;4.15;;;19.10;79.20;;;;;;5089295;27;20041;-65
2021/07/12 07:56:42;;;;;;;4.18;3.88;;;19.10;79.50;;;;;;5088493;27;20043;-65
2021/07/12 07:59:08;;;;;;;6.82;4.28;;;19.20;79.60;;;;;;5089674;28;20024;-65
2021/07/12 08:01:35;;;;;;;3.78;3.50;;;19.30;79.60;;;;;;5089289;27;20040;-65
2021/07/12 08:04:00;;;;;;;5.00;4.30;;;19.40;79.80;;;;;;5089619;28;20032;-65
2021/07/12 08:06:26;;;;;;;4.47;4.07;;;19.40;80.60;;;;;;5087901;27;20036;-66
2021/07/12 08:08:52;;;;;;;4.45;4.05;;;19.50;79.60;;;;;;5089014;27;20111;-65
2021/07/12 08:11:18;;;;;;;4.63;4.22;;;19.60;79.80;;;;;;5087932;28;20097;-65
2021/07/12 08:13:44;;;;;;;3.17;2.97;;;19.70;79.80;;;;;;5081607;28;20519;-65
2021/07/12 08:16:10;;;;;;;3.58;3.10;;;19.80;80.00;;;;;;5089095;28;20035;-65
2021/07/12 08:18:35;;;;;;;3.53;3.33;;;19.90;80.00;;;;;;5086688;27;20088;-65
2021/07/12 08:21:02;;;;;;;3.28;2.88;;;20.10;79.90;;;;;;5087845;27;20035;-65
2021/07/12 08:23:28;;;;;;;4.63;3.90;;;20.10;79.90;;;;;;5088438;28;20067;-64
2021/07/12 08:25:53;;;;;;;3.10;2.90;;;20.30;79.80;;;;;;5083427;28;20569;-65
2021/07/12 08:28:19;;;;;;;3.55;3.33;;;20.40;79.50;;;;;;5087706;28;20024;-65
2021/07/12 08:30:47;;;;;;;3.05;2.85;;;20.50;78.90;;;;;;5087549;27;20076;-66
2021/07/12 08:33:12;;;;;;;2.63;2.47;;;20.60;78.80;;;;;;5086723;27;20448;-65
2021/07/12 08:35:38;;;;;;;2.80;2.60;;;20.80;78.70;;;;;;5088717;28;20040;-65
2021/07/12 08:38:05;;;;;;;2.63;2.20;;;20.90;78.70;;;;;;5087000;27;20028;-65
2021/07/12 08:40:31;;;;;;;2.40;2.30;;;21.00;78.30;;;;;;5087248;27;20089;-64
2021/07/12 08:42:58;;;;;;;2.30;2.10;;;21.20;78.40;;;;;;5083012;28;20032;-65
2021/07/12 08:45:25;;;;;;;1.90;1.70;;;21.30;77.80;;;;;;5082511;28;20296;-65
2021/07/12 08:47:52;;;;;;;1.30;1.20;;;21.50;77.60;;;;;;5086052;28;20027;-65
2021/07/12 08:50:19;;;;;;;1.30;1.20;;;21.60;76.50;;;;;;5084577;27;20077;-65
2021/07/12 08:52:46;;;;;;;1.33;1.23;;;21.80;75.40;;;;;;5080374;27;20064;-65
2021/07/12 08:55:13;;;;;;;1.30;1.25;;;21.90;74.80;;;;;;5087198;28;20036;-65
2021/07/12 08:57:38;;;;;;;1.30;1.20;;;22.10;74.50;;;;;;5092902;27;20105;-65
2021/07/12 09:00:07;;;;;;;1.20;1.10;;;22.20;74.00;;;;;;5088164;28;20527;-66
2021/07/12 09:02:34;;;;;;;2.78;1.20;;;22.40;73.20;;;;;;5086117;27;20051;-65
2021/07/12 09:05:00;;;;;;;1.17;1.08;;;22.60;73.20;;;;;;5085161;27;20083;-65
2021/07/12 09:07:27;;;;;;;1.10;1.00;;;22.70;72.50;;;;;;5086532;28;20130;-65
2021/07/12 09:10:13;;;;;;;1.63;0.90;;;22.90;71.80;;;;;;5087482;28;20047;-65
2021/07/12 09:12:47;;;;;;;1.20;1.10;;;23.10;70.60;;;;;;5087183;27;20028;-65
2021/07/12 09:15:22;;;;;;;1.17;1.17;;;23.20;69.60;;;;;;5086653;28;20028;-64
2021/07/12 09:17:52;;;;;;;;;;;23.30;69.00;;;;;;5086551;27;20279;-65
2021/07/12 09:20:32;;;;;;;1.00;0.98;;;23.50;70.40;;;;;;5087660;28;19973;-65
2021/07/12 09:22:59;;;;;;;1.85;1.05;;;23.60;68.10;;;;;;5087673;28;20024;-66
2021/07/12 09:25:31;;;;;;;1.00;0.98;;;23.70;69.10;;;;;;5086052;28;20192;-64
2021/07/12 09:27:56;;;;;;;1.25;0.90;;;23.80;68.10;;;;;;5087531;27;20089;-65
2021/07/12 09:30:23;;;;;;;1.20;0.90;;;23.90;68.30;;;;;;5086102;27;20040;-66
2021/07/12 09:32:53;;;;;;;1.60;0.80;;;24.10;68.00;;;;;;5087763;27;20097;-65
2021/07/12 09:35:21;;;;;;;1.20;0.98;;;24.20;67.00;;;;;;5086298;28;20036;-66
2021/07/12 09:37:56;;;;;;;0.93;0.93;;;24.30;67.00;;;;;;5086195;27;20029;-65
2021/07/12 09:40:22;;;;;;;0.68;0.68;;;24.40;66.40;;;;;;5085460;27;20032;-66
2021/07/12 09:42:49;;;;;;;0.70;0.70;;;24.60;66.40;;;;;;5087073;28;20376;-65
2021/07/12 09:45:18;;;;;;;1.27;1.00;;;24.70;64.80;;;;;;5085457;27;20086;-65
2021/07/12 09:47:46;;;;;;;1.00;0.90;;;24.70;64.10;;;;;;5086353;28;20036;-65
2021/07/12 09:50:17;;;;;;;1.05;0.90;;;24.80;63.60;;;;;;5085576;27;20036;-66
2021/07/12 09:52:49;;;;;;;1.88;0.90;;;24.90;62.00;;;;;;5079564;27;20032;-66
2021/07/12 09:55:24;;;;;;;1.00;0.90;;;25.00;62.00;;;;;;5084383;28;20028;-65
2021/07/12 09:58:05;;;;;;;;;;;25.10;61.70;;;;;;5093091;28;20081;-65
2021/07/12 10:00:31;;;;;;;1.05;1.05;;;25.20;64.20;;;;;;5086121;27;19975;-66
2021/07/12 10:02:58;;;;;;;0.82;0.82;;;25.30;62.50;;;;;;5085501;28;20056;-65
2021/07/12 10:05:24;;;;;;;3.90;1.58;;;25.40;61.20;;;;;;5085126;27;20277;-65
2021/07/12 10:07:51;;;;;;;3.22;2.78;;;25.50;61.30;;;;;;5086849;28;20082;-65
2021/07/12 10:10:16;;;;;;;1.38;1.27;;;25.50;60.50;;;;;;5085497;27;20036;-65
2021/07/12 10:12:43;;;;;;;0.98;0.90;;;25.60;60.00;;;;;;5085458;27;20089;-65
2021/07/12 10:15:10;;;;;;;1.08;0.98;;;25.60;59.60;;;;;;5086369;28;20499;-64
2021/07/12 10:17:39;;;;;;;1.17;0.80;;;25.70;59.00;;;;;;5086551;27;20028;-65
2021/07/12 10:20:05;;;;;;;1.50;1.40;;;25.80;58.60;;;;;;5083911;28;20582;-65
2021/07/12 10:22:35;;;;;;;1.35;1.23;;;25.80;58.30;;;;;;5084537;28;20503;-66
2021/07/12 10:25:18;;;;;;;2.05;1.35;;;25.90;57.80;;;;;;5077810;28;20523;-65
2021/07/12 10:27:48;;;;;;;1.05;0.85;;;26.00;57.50;;;;;;5087553;28;20078;-65
2021/07/12 10:30:47;;;;;;;1.15;0.90;;;26.00;57.70;;;;;;5086862;27;20032;-66
2021/07/12 10:33:15;;;;;;;0.82;0.82;;;26.10;58.00;;;;;;5084772;28;20131;-65
2021/07/12 10:35:54;;;;;;;2.25;0.88;;;26.20;57.70;;;;;;5087199;28;20043;-65
2021/07/12 10:38:40;;;;;;;0.77;0.77;;;26.20;56.30;;;;;;5082838;28;20111;-65
2021/07/12 10:41:22;;;;;;;1.70;0.82;;;26.30;57.10;;;;;;5086560;27;20021;-66
2021/07/12 10:43:58;;;;;;;0.70;0.70;;;26.30;57.10;;;;;;5086265;28;20094;-65
2021/07/12 10:46:24;;;;;;;0.90;0.90;;;26.30;57.80;;;;;;5084473;28;20039;-65
2021/07/12 10:48:50;;;;;;;0.90;0.70;;;26.40;57.40;;;;;;5086524;27;20028;-65
2021/07/12 10:51:33;;;;;;;0.82;0.82;;;26.40;57.10;;;;;;5084376;28;20028;-66
2021/07/12 10:54:01;;;;;;;1.60;0.70;;;26.50;56.20;;;;;;5085286;27;20052;-66
2021/07/12 10:56:53;;;;;;;1.88;0.73;;;26.60;56.20;;;;;;5083843;27;20112;-66
2021/07/12 10:59:26;;;;;;;0.70;0.70;;;26.60;55.90;;;;;;5084885;28;20028;-66
2021/07/12 11:01:52;;;;;;;0.80;0.70;;;26.70;55.70;;;;;;5085680;27;20024;-66
2021/07/12 11:04:32;;;;;;;0.80;0.80;;;26.70;56.00;;;;;;5084499;28;20036;-66
2021/07/12 11:06:58;;;;;;;0.85;0.77;;;26.70;55.50;;;;;;5085173;28;20040;-66
2021/07/12 11:09:47;;;;;;;0.80;0.80;;;26.80;56.40;;;;;;5086018;27;20086;-66
2021/07/12 11:12:37;;;;;;;0.70;0.65;;;26.90;56.10;;;;;;5083671;28;20391;-66
2021/07/12 11:15:21;;;;;;;0.80;0.80;;;27.00;55.00;;;;;;5085450;28;20111;-65
2021/07/12 11:18:00;;;;;;;1.00;1.00;;;27.00;54.00;;;;;;5089359;27;20058;-66
2021/07/12 11:20:46;;;;;;;0.85;0.80;;;27.00;54.70;;;;;;5089896;27;20046;-66
2021/07/12 11:23:50;;;;;;;0.88;0.88;;;27.10;54.80;;;;;;5089979;28;20028;-65
2021/07/12 11:26:19;;;;;;;0.70;0.70;;;27.10;54.80;;;;;;5088618;28;20562;-65
2021/07/12 11:29:06;;;;;;;1.25;0.90;;;27.10;54.10;;;;;;5104806;27;20444;-66
2021/07/12 11:31:51;;;;;;;0.73;0.73;;;27.20;55.00;;;;;;5087894;28;20056;-66
2021/07/12 11:34:39;;;;;;;2.20;0.70;;;27.20;55.00;;;;;;5088564;27;20024;-65
2021/07/12 11:37:11;;;;;;;0.93;0.93;;;27.20;53.80;;;;;;5089589;27;20461;-65
2021/07/12 11:39:54;;;;;;;0.80;0.80;;;27.20;54.60;;;;;;5088524;28;20032;-66
2021/07/12 11:42:35;;;;;;;0.88;0.88;;;27.30;54.60;;;;;;5088277;27;20043;-66
2021/07/12 11:45:03;;;;;;;0.80;0.68;;;27.30;53.90;;;;;;5088900;27;20066;-65
2021/07/12 11:47:33;;;;;;;1.23;1.10;;;27.40;54.30;;;;;;5089091;28;20033;-66
2021/07/12 11:50:03;;;;;;;1.88;1.55;;;27.40;54.00;;;;;;5089052;27;20028;-66
2021/07/12 11:52:30;;;;;;;1.20;0.88;;;27.40;54.00;;;;;;5087836;27;20407;-65
2021/07/12 11:55:11;;;;;;;0.85;0.85;;;27.50;54.00;;;;;;5082609;28;20036;-65
2021/07/12 11:57:37;;;;;;;1.00;0.90;;;27.50;53.00;;;;;;5087581;27;20443;-66
2021/07/12 12:00:08;;;;;;;1.10;0.73;;;27.50;54.10;;;;;;5086892;28;20035;-66
2021/07/12 12:02:34;;;;;;;0.88;0.88;;;27.50;54.10;;;;;;5104283;27;20032;-66
2021/07/12 12:05:02;;;;;;;0.70;0.70;;;27.60;54.30;;;;;;5092787;27;20032;-66
2021/07/12 12:07:48;;;;;;;0.63;0.63;;;27.60;53.90;;;;;;5090063;28;20036;-66
2021/07/12 12:10:29;;;;;;;0.80;0.80;;;27.70;53.10;;;;;;5086800;27;20066;-66
2021/07/12 12:13:00;;;;;;;0.90;0.90;;;27.80;53.50;;;;;;5084472;27;20032;-66
2021/07/12 12:15:36;;;;;;;1.00;1.00;;;27.80;52.80;;;;;;5087978;28;20063;-67
2021/07/12 12:18:05;;;;;;;0.85;0.85;;;27.80;53.90;;;;;;5088746;27;20506;-66
2021/07/12 12:20:34;;;;;;;3.13;0.80;;;27.90;53.30;;;;;;5085578;27;20055;-66
2021/07/12 12:23:41;;;;;;;0.77;0.73;;;27.90;53.10;;;;;;5086546;28;20028;-66
2021/07/12 12:26:13;;;;;;;0.75;0.75;;;27.90;52.10;;;;;;5050677;28;20052;-65
2021/07/12 12:28:44;;;;;;;1.08;0.82;;;28.00;52.20;;;;;;5086316;27;20035;-66
2021/07/12 12:31:29;;;;;;;0.77;0.60;;;28.00;51.90;;;;;;5088454;28;20059;-66
2021/07/12 12:33:58;;;;;;;0.70;0.70;;;28.00;51.70;;;;;;5084902;27;20498;-66
2021/07/12 12:36:28;;;;;;;2.22;0.70;;;28.00;51.60;;;;;;5087986;27;20111;-66
2021/07/12 12:38:57;;;;;;;0.80;0.80;;;28.10;50.80;;;;;;5088841;27;20051;-66
2021/07/12 12:41:30;;;;;;;0.70;0.70;;;28.10;51.30;;;;;;5087132;27;20035;-66
2021/07/12 12:44:18;;;;;;;0.88;0.65;;;28.10;51.20;;;;;;5087963;28;20519;-66
2021/07/12 12:47:00;;;;;;;1.70;0.80;;;28.10;51.00;;;;;;5086261;27;20112;-66
2021/07/12 12:49:31;;;;;;;0.60;0.60;;;28.20;50.60;;;;;;5088156;27;20032;-66
2021/07/12 12:52:12;;;;;;;0.98;0.70;;;28.20;51.00;;;;;;5088527;28;20028;-66
2021/07/12 12:54:43;;;;;;;0.90;0.90;;;28.20;50.70;;;;;;5086297;27;20155;-66
2021/07/12 12:57:10;;;;;;;0.60;0.60;;;28.20;50.70;;;;;;5087662;27;20032;-66
2021/07/12 12:59:38;;;;;;;0.70;0.70;;;28.20;51.10;;;;;;5103143;27;20499;-66